createdAt,value
2022-11-10T00:01:19.245Z,2.78
2022-11-10T00:03:48.955Z,2.58
2022-11-10T00:06:16.120Z,3.15
2022-11-10T00:08:43.203Z,2.55
2022-11-10T00:11:10.404Z,2.88
2022-11-10T00:14:01.300Z,3.13
2022-11-10T00:16:47.022Z,2.75
2022-11-10T00:19:14.123Z,2.58
2022-11-10T00:21:41.202Z,2.70
2022-11-10T00:24:08.884Z,3.33
2022-11-10T00:26:36.116Z,2.88
2022-11-10T00:29:03.218Z,2.92
2022-11-10T00:31:30.335Z,2.95
2022-11-10T00:33:58.748Z,2.90
2022-11-10T00:36:26.254Z,3.08
2022-11-10T00:38:53.370Z,3.20
2022-11-10T00:41:21.461Z,3.00
2022-11-10T00:43:49.047Z,3.13
2022-11-10T00:46:16.395Z,2.88
2022-11-10T00:48:43.433Z,2.92
2022-11-10T00:51:22.634Z,2.88
2022-11-10T00:53:50.300Z,3.53
2022-11-10T00:56:18.096Z,3.15
2022-11-10T00:58:45.655Z,3.35
2022-11-10T01:01:13.992Z,3.47
2022-11-10T01:03:41.852Z,3.80
2022-11-10T01:06:12.701Z,3.15
2022-11-10T01:08:41.326Z,3.33
2022-11-10T01:11:19.361Z,3.03
2022-11-10T01:14:11.033Z,3.30
2022-11-10T01:16:38.245Z,3.42
2022-11-10T01:19:05.376Z,3.35
2022-11-10T01:21:32.830Z,3.35
2022-11-10T01:24:00.285Z,3.13
2022-11-10T01:26:27.501Z,3.47
2022-11-10T01:28:54.818Z,3.25
2022-11-10T01:31:22.986Z,3.20
2022-11-10T01:33:50.057Z,3.20
2022-11-10T01:36:17.885Z,3.13
2022-11-10T01:38:45.337Z,3.08
2022-11-10T01:41:14.763Z,3.13
2022-11-10T01:43:42.465Z,3.40
2022-11-10T01:46:12.453Z,2.97
2022-11-10T01:49:01.044Z,2.75
2022-11-10T01:51:37.852Z,3.00
2022-11-10T01:54:24.481Z,3.00
2022-11-10T01:56:55.953Z,2.97
2022-11-10T01:59:29.220Z,2.97
2022-11-10T02:02:05.802Z,2.92
2022-11-10T02:04:33.800Z,2.75
2022-11-10T02:07:00.948Z,2.75
2022-11-10T02:09:28.090Z,2.83
2022-11-10T02:11:56.425Z,2.90
2022-11-10T02:14:23.811Z,2.97
2022-11-10T02:16:51.141Z,2.78
2022-11-10T02:19:24.768Z,2.97
2022-11-10T02:21:51.988Z,2.95
2022-11-10T02:24:19.119Z,2.75
2022-11-10T02:26:52.888Z,2.88
2022-11-10T02:29:20.610Z,2.83
2022-11-10T02:31:47.644Z,2.83
2022-11-10T02:34:15.427Z,3.00
2022-11-10T02:36:42.476Z,2.88
2022-11-10T02:39:09.656Z,3.08
2022-11-10T02:41:36.806Z,2.90
2022-11-10T02:44:05.095Z,3.10
2022-11-10T02:46:32.198Z,3.05
2022-11-10T02:48:59.472Z,3.00
2022-11-10T02:51:26.652Z,3.33
2022-11-10T02:53:53.742Z,3.35
2022-11-10T02:56:20.788Z,3.08
2022-11-10T02:58:48.002Z,3.20
2022-11-10T03:01:15.219Z,3.35
2022-11-10T03:03:42.273Z,2.85
2022-11-10T03:06:09.494Z,2.97
2022-11-10T03:08:37.905Z,3.22
2022-11-10T03:11:05.470Z,3.70
2022-11-10T03:13:51.580Z,3.03
2022-11-10T03:16:20.187Z,3.25
2022-11-10T03:18:47.266Z,3.20
2022-11-10T03:21:14.589Z,3.65
2022-11-10T03:23:41.710Z,3.22
2022-11-10T03:26:08.894Z,3.65
2022-11-10T03:28:36.041Z,3.88
2022-11-10T03:31:03.082Z,3.47
2022-11-10T03:33:30.290Z,3.42
2022-11-10T03:35:57.359Z,3.00
2022-11-10T03:38:24.412Z,3.20
2022-11-10T03:41:17.486Z,3.25
2022-11-10T03:43:38.925Z,3.25
2022-11-10T03:46:06.227Z,3.22
2022-11-10T03:48:33.251Z,2.92
2022-11-10T03:51:00.378Z,3.50
2022-11-10T03:53:27.406Z,3.45
2022-11-10T03:55:54.659Z,3.05
2022-11-10T03:58:21.709Z,3.30
2022-11-10T04:00:48.922Z,2.70
2022-11-10T04:03:16.211Z,3.05
2022-11-10T04:06:01.897Z,3.30
2022-11-10T04:08:47.478Z,2.70
2022-11-10T04:11:34.600Z,2.95
2022-11-10T04:14:20.727Z,3.10
2022-11-10T04:16:47.913Z,2.45
2022-11-10T04:19:15.080Z,2.80
2022-11-10T04:21:42.658Z,2.90
2022-11-10T04:24:10.077Z,2.85
2022-11-10T04:26:38.910Z,2.63
2022-11-10T04:29:11.252Z,2.58
2022-11-10T04:31:41.232Z,2.55
2022-11-10T04:34:14.577Z,2.47
2022-11-10T04:36:44.181Z,2.83
2022-11-10T04:39:12.626Z,3.10
2022-11-10T04:41:39.784Z,2.92
2022-11-10T04:44:06.949Z,3.03
2022-11-10T04:46:40.993Z,2.90
2022-11-10T04:49:08.859Z,2.28
2022-11-10T04:51:39.196Z,2.40
2022-11-10T04:54:08.405Z,2.20
2022-11-10T04:56:35.553Z,2.53
2022-11-10T04:59:02.858Z,2.80
2022-11-10T05:01:30.046Z,2.70
2022-11-10T05:03:58.193Z,2.80
2022-11-10T05:06:25.588Z,2.85
2022-11-10T05:08:52.841Z,2.50
2022-11-10T05:11:20.283Z,2.60
2022-11-10T05:13:47.400Z,2.75
2022-11-10T05:16:15.025Z,2.75
2022-11-10T05:18:42.616Z,2.45
2022-11-10T05:21:10.275Z,2.67
2022-11-10T05:23:40.656Z,2.80
2022-11-10T05:26:18.673Z,2.53
2022-11-10T05:28:46.515Z,2.60
2022-11-10T05:31:14.072Z,2.53
2022-11-10T05:33:41.810Z,2.60
2022-11-10T05:36:10.431Z,2.53
2022-11-10T05:38:42.101Z,2.28
2022-11-10T05:41:11.175Z,2.50
2022-11-10T05:43:38.410Z,2.30
2022-11-10T05:46:05.665Z,2.28
2022-11-10T05:48:32.961Z,2.45
2022-11-10T05:51:00.047Z,2.20
2022-11-10T05:53:27.300Z,2.13
2022-11-10T05:55:54.336Z,2.65
2022-11-10T05:58:21.438Z,2.30
2022-11-10T06:00:48.713Z,2.25
2022-11-10T06:03:19.242Z,2.17
2022-11-10T06:05:47.131Z,1.75
2022-11-10T06:08:14.472Z,1.85
2022-11-10T06:10:41.942Z,1.80
2022-11-10T06:13:11.229Z,1.67
2022-11-10T06:15:38.532Z,1.92
2022-11-10T06:18:06.309Z,2.13
2022-11-10T06:20:33.746Z,1.80
2022-11-10T06:23:07.281Z,1.80
2022-11-10T06:25:36.182Z,1.80
2022-11-10T06:28:04.575Z,1.80
2022-11-10T06:30:35.076Z,2.47
2022-11-10T06:33:02.583Z,2.15
2022-11-10T06:35:30.593Z,2.00
2022-11-10T06:38:07.162Z,2.08
2022-11-10T06:40:34.632Z,1.95
2022-11-10T06:43:02.179Z,1.80
2022-11-10T06:45:29.518Z,1.85
2022-11-10T06:48:12.094Z,1.80
2022-11-10T06:50:39.411Z,2.10
2022-11-10T06:53:06.502Z,2.65
2022-11-10T06:55:33.641Z,2.72
2022-11-10T06:58:01.269Z,3.30
2022-11-10T07:00:29.513Z,3.35
2022-11-10T07:03:05.932Z,3.15
2022-11-10T07:05:37.214Z,3.38
2022-11-10T07:08:16.099Z,2.97
2022-11-10T07:10:45.140Z,2.78
2022-11-10T07:13:12.530Z,2.38
2022-11-10T07:15:39.713Z,2.40
2022-11-10T07:18:06.729Z,2.17
2022-11-10T07:20:34.623Z,2.40
2022-11-10T07:23:04.964Z,2.28
2022-11-10T07:25:37.980Z,2.25
2022-11-10T07:28:07.862Z,1.90
2022-11-10T07:30:36.131Z,2.20
2022-11-10T07:33:07.385Z,2.22
2022-11-10T07:35:35.400Z,2.13
2022-11-10T07:38:09.107Z,2.13
2022-11-10T07:40:37.534Z,2.35
2022-11-10T07:43:05.259Z,1.90
2022-11-10T07:45:33.657Z,2.20
2022-11-10T07:48:03.159Z,2.00
2022-11-10T07:50:30.401Z,2.38
2022-11-10T07:53:24.084Z,2.53
2022-11-10T07:55:51.297Z,3.05
2022-11-10T07:58:19.255Z,3.17
2022-11-10T08:00:47.423Z,2.83
2022-11-10T08:03:19.088Z,2.85
2022-11-10T08:08:14.086Z,2.28
2022-11-10T08:10:42.070Z,2.15
2022-11-10T08:13:12.701Z,2.08
2022-11-10T08:15:40.855Z,1.90
2022-11-10T08:18:22.953Z,2.08
2022-11-10T08:23:18.025Z,1.70
2022-11-10T08:25:46.806Z,2.05
2022-11-10T08:28:19.616Z,1.90
2022-11-10T08:30:49.387Z,2.25
2022-11-10T08:33:19.880Z,1.80
2022-11-10T08:35:49.880Z,1.80
2022-11-10T08:38:23.174Z,1.80
2022-11-10T08:40:50.299Z,1.52
2022-11-10T08:43:18.561Z,1.52
2022-11-10T08:45:46.228Z,1.70
2022-11-10T08:48:19.918Z,1.65
2022-11-10T08:50:49.735Z,1.50
2022-11-10T08:53:23.727Z,1.70
2022-11-10T08:55:52.264Z,1.70
2022-11-10T08:58:23.350Z,1.45
2022-11-10T09:00:51.762Z,1.45
2022-11-10T09:03:22.823Z,1.58
2022-11-10T09:05:57.687Z,1.60
2022-11-10T09:08:25.647Z,1.65
2022-11-10T09:10:52.918Z,1.65
2022-11-10T09:13:28.990Z,1.50
2022-11-10T09:16:01.926Z,1.58
2022-11-10T09:18:29.898Z,1.40
2022-11-10T09:20:57.362Z,1.60
2022-11-10T09:23:28.188Z,1.83
2022-11-10T09:25:56.733Z,1.20
2022-11-10T09:28:24.389Z,2.20
2022-11-10T09:30:52.679Z,1.70
2022-11-10T09:33:20.227Z,1.80
2022-11-10T09:35:48.320Z,1.80
2022-11-10T09:38:15.455Z,1.83
2022-11-10T09:41:15.482Z,1.58
2022-11-10T09:44:04.247Z,1.60
2022-11-10T09:46:43.354Z,1.90
2022-11-10T09:49:39.861Z,1.60
2022-11-10T09:52:08.970Z,1.80
2022-11-10T09:55:03.633Z,1.75
2022-11-10T09:57:31.002Z,1.88
2022-11-10T09:59:58.089Z,1.85
2022-11-10T10:02:36.377Z,1.98
2022-11-10T10:05:49.155Z,2.08
2022-11-10T10:08:43.503Z,1.58
2022-11-10T10:12:41.122Z,1.35
2022-11-10T10:15:17.191Z,1.50
2022-11-10T10:18:07.752Z,1.80
2022-11-10T10:21:25.054Z,1.80
2022-11-10T10:24:21.163Z,1.60
2022-11-10T10:26:56.113Z,1.45
2022-11-10T10:29:33.141Z,1.98
2022-11-10T10:32:04.870Z,2.00
2022-11-10T10:34:34.666Z,1.70
2022-11-10T10:37:02.195Z,1.48
2022-11-10T10:39:44.939Z,1.50
2022-11-10T10:42:35.932Z,1.60
2022-11-10T10:45:29.220Z,1.48
2022-11-10T10:47:57.998Z,1.50
2022-11-10T10:50:36.037Z,1.52
2022-11-10T10:53:07.378Z,1.33
2022-11-10T10:55:38.282Z,1.27
2022-11-10T10:58:26.743Z,1.27
2022-11-10T11:01:04.032Z,1.10
2022-11-10T11:03:45.646Z,1.05
2022-11-10T11:06:18.500Z,1.10
2022-11-10T11:09:09.938Z,1.25
2022-11-10T11:11:40.915Z,1.05
2022-11-10T11:14:27.546Z,1.20
2022-11-10T11:16:56.361Z,1.02
2022-11-10T11:19:28.264Z,1.20
2022-11-10T11:25:12.363Z,0.93
2022-11-10T11:27:54.646Z,0.75
2022-11-10T11:30:24.534Z,0.90
2022-11-10T11:33:16.151Z,1.00
2022-11-10T11:36:13.774Z,0.80
2022-11-10T11:38:59.031Z,0.80
2022-11-10T11:41:57.249Z,0.60
2022-11-10T11:45:07.739Z,1.13
2022-11-10T11:48:21.626Z,0.80
2022-11-10T11:51:16.674Z,1.00
2022-11-10T11:54:19.872Z,0.60
2022-11-10T11:56:50.560Z,0.63
2022-11-10T11:59:43.542Z,0.80
2022-11-10T12:02:31.571Z,0.55
2022-11-10T12:05:07.296Z,0.50
2022-11-10T12:07:57.450Z,0.80
2022-11-10T12:11:01.550Z,1.00
2022-11-10T12:13:47.995Z,0.63
2022-11-10T12:16:26.062Z,0.70
2022-11-10T12:19:19.303Z,0.55
2022-11-10T12:21:54.273Z,0.70
2022-11-10T12:24:39.187Z,0.68
2022-11-10T12:27:13.263Z,0.52
2022-11-10T12:29:54.770Z,0.55
2022-11-10T12:33:33.966Z,0.68
2022-11-10T12:36:06.558Z,0.80
2022-11-10T12:38:59.540Z,0.80
2022-11-10T12:41:35.285Z,0.90
2022-11-10T12:44:21.569Z,1.35
2022-11-10T12:46:56.566Z,0.90
2022-11-10T12:49:38.097Z,0.80
2022-11-10T12:52:26.467Z,0.90
2022-11-10T12:54:54.067Z,0.60
2022-11-10T12:57:25.893Z,0.68
2022-11-10T13:00:28.164Z,0.70
2022-11-10T13:02:56.719Z,0.70
2022-11-10T13:05:45.407Z,0.70
2022-11-10T13:08:25.099Z,0.60
2022-11-10T13:10:57.978Z,0.68
2022-11-10T13:13:25.269Z,0.50
2022-11-10T13:15:58.885Z,0.82
2022-11-10T13:18:31.833Z,0.70
2022-11-10T13:21:00.024Z,0.55
2022-11-10T13:23:37.894Z,0.60
2022-11-10T13:26:10.977Z,0.60
2022-11-10T13:28:47.351Z,0.85
2022-11-10T13:31:31.184Z,0.93
2022-11-10T13:34:20.145Z,1.70
2022-11-10T13:36:49.544Z,1.00
2022-11-10T13:39:19.110Z,0.90
2022-11-10T13:41:49.699Z,0.70
2022-11-10T13:44:36.903Z,0.75
2022-11-10T13:47:09.756Z,0.52
2022-11-10T13:50:03.649Z,0.55
2022-11-10T13:53:15.757Z,1.50
2022-11-10T13:56:01.257Z,1.00
2022-11-10T13:58:32.568Z,0.80
2022-11-10T14:01:17.820Z,0.75
2022-11-10T14:03:48.145Z,0.60
2022-11-10T14:06:31.481Z,0.50
2022-11-10T14:09:43.314Z,0.98
2022-11-10T14:12:34.406Z,0.82
2022-11-10T14:15:13.675Z,0.60
2022-11-10T14:17:50.722Z,0.65
2022-11-10T14:20:43.684Z,0.90
2022-11-10T14:23:44.687Z,0.80
2022-11-10T14:26:41.113Z,0.80
2022-11-10T14:29:32.165Z,0.50
2022-11-10T14:32:04.033Z,0.70
2022-11-10T14:34:35.725Z,0.70
2022-11-10T14:37:04.550Z,0.50
2022-11-10T14:39:34.382Z,0.40
2022-11-10T14:42:04.949Z,0.40
2022-11-10T14:44:34.494Z,0.57
2022-11-10T14:47:24.882Z,0.50
2022-11-10T14:50:15.095Z,0.65
2022-11-10T14:52:47.186Z,0.80
2022-11-10T14:55:20.908Z,1.08
2022-11-10T14:58:11.967Z,1.40
2022-11-10T15:00:42.529Z,0.85
2022-11-10T15:03:20.499Z,1.73
2022-11-10T15:05:48.837Z,0.98
2022-11-10T15:08:17.031Z,0.88
2022-11-10T15:10:50.942Z,0.88
2022-11-10T15:13:35.165Z,0.77
2022-11-10T15:16:27.700Z,0.93
2022-11-10T15:18:57.573Z,1.10
2022-11-10T15:21:34.023Z,1.15
2022-11-10T15:24:05.806Z,1.65
2022-11-10T15:26:39.953Z,2.22
2022-11-10T15:29:19.020Z,4.10
2022-11-10T15:31:46.145Z,5.97
2022-11-10T15:34:40.698Z,16.08
2022-11-10T15:37:30.744Z,9.13
2022-11-10T15:40:30.341Z,6.55
2022-11-10T15:43:27.229Z,6.75
2022-11-10T15:46:03.935Z,5.32
2022-11-10T15:48:40.326Z,4.68
2022-11-10T15:51:12.710Z,5.47
2022-11-10T15:53:44.160Z,5.53
2022-11-10T15:56:21.580Z,4.70
2022-11-10T15:58:51.944Z,5.90
2022-11-10T16:01:19.035Z,4.20
2022-11-10T16:03:46.563Z,3.58
2022-11-10T16:06:16.175Z,3.33
2022-11-10T16:08:43.794Z,5.13
2022-11-10T16:11:22.378Z,5.05
2022-11-10T16:13:51.045Z,7.70
2022-11-10T16:16:19.376Z,6.88
2022-11-10T16:18:47.076Z,5.13
2022-11-10T16:21:23.244Z,5.38
2022-11-10T16:23:52.258Z,4.07
2022-11-10T16:26:24.155Z,4.40
2022-11-10T16:31:22.084Z,3.67
2022-11-10T16:33:50.848Z,4.15
2022-11-10T16:36:31.638Z,3.67
2022-11-10T16:39:02.387Z,3.65
2022-11-10T16:41:29.532Z,4.10
2022-11-10T16:43:56.619Z,3.90
2022-11-10T16:46:27.267Z,4.38
2022-11-10T16:48:58.902Z,3.78
2022-11-10T16:51:31.439Z,2.70
2022-11-10T16:53:59.642Z,2.83
2022-11-10T16:56:27.404Z,3.22
2022-11-10T16:58:55.223Z,3.60
2022-11-10T17:01:32.284Z,3.53
2022-11-10T17:04:03.252Z,3.92
2022-11-10T17:06:30.816Z,4.10
2022-11-10T17:09:13.946Z,5.80
2022-11-10T17:11:41.169Z,5.68
2022-11-10T17:14:12.155Z,5.47
2022-11-10T17:16:43.952Z,5.40
2022-11-10T17:19:25.809Z,3.63
2022-11-10T17:21:54.117Z,2.88
2022-11-10T17:24:21.762Z,3.30
2022-11-10T17:26:49.779Z,2.35
2022-11-10T17:29:21.001Z,1.88
2022-11-10T17:31:50.392Z,2.17
2022-11-10T17:34:17.515Z,2.05
2022-11-10T17:36:44.824Z,1.83
2022-11-10T17:39:16.833Z,1.83
2022-11-10T17:41:44.041Z,2.10
2022-11-10T17:44:15.213Z,3.67
2022-11-10T17:46:43.108Z,4.95
2022-11-10T17:49:10.271Z,5.20
2022-11-10T17:51:37.810Z,6.35
2022-11-10T17:54:11.586Z,8.45
2022-11-10T17:56:38.751Z,8.57
2022-11-10T17:59:05.909Z,8.20
2022-11-10T18:01:33.313Z,8.10
2022-11-10T18:04:00.634Z,7.28
2022-11-10T18:06:27.819Z,6.70
2022-11-10T18:08:54.798Z,6.40
2022-11-10T18:11:21.874Z,6.10
2022-11-10T18:13:49.016Z,5.70
2022-11-10T18:16:16.372Z,4.88
2022-11-10T18:18:43.521Z,5.38
2022-11-10T18:21:10.870Z,3.42
2022-11-10T18:23:38.122Z,3.33
2022-11-10T18:26:07.700Z,4.00
2022-11-10T18:28:35.867Z,4.53
2022-11-10T18:31:12.803Z,4.15
2022-11-10T18:33:40.170Z,3.78
2022-11-10T18:36:08.868Z,3.50
2022-11-10T18:38:36.120Z,2.60
2022-11-10T18:41:26.057Z,2.75
2022-11-10T18:43:53.280Z,1.90
2022-11-10T18:46:20.347Z,1.60
2022-11-10T18:48:48.397Z,1.42
2022-11-10T18:51:16.580Z,1.00
2022-11-10T18:53:43.725Z,1.00
2022-11-10T18:56:10.769Z,0.90
2022-11-10T18:58:37.849Z,1.10
2022-11-10T19:01:10.582Z,2.33
2022-11-10T19:03:37.903Z,4.13
2022-11-10T19:06:05.827Z,5.10
2022-11-10T19:08:32.956Z,7.22
2022-11-10T19:11:00.164Z,8.73
2022-11-10T19:13:27.200Z,6.15
2022-11-10T19:15:55.848Z,4.63
2022-11-10T19:18:23.026Z,3.60
2022-11-10T19:20:50.007Z,2.90
2022-11-10T19:23:17.857Z,3.15
2022-11-10T19:25:45.086Z,2.50
2022-11-10T19:28:12.242Z,2.75
2022-11-10T19:30:39.985Z,2.60
2022-11-10T19:33:07.898Z,3.00
2022-11-10T19:35:41.170Z,3.20
2022-11-10T19:38:08.275Z,3.33
2022-11-10T19:40:39.897Z,3.00
2022-11-10T19:43:06.917Z,3.30
2022-11-10T19:45:35.181Z,2.88
2022-11-10T19:48:02.215Z,3.40
2022-11-10T19:50:29.399Z,3.13
2022-11-10T19:52:56.465Z,2.60
2022-11-10T19:55:23.580Z,2.60
2022-11-10T19:57:50.594Z,2.47
2022-11-10T20:00:17.978Z,2.58
2022-11-10T20:02:45.876Z,2.47
2022-11-10T20:05:13.181Z,5.65
2022-11-10T20:07:58.903Z,7.05
2022-11-10T20:10:26.207Z,6.28
2022-11-10T20:12:53.326Z,4.63
2022-11-10T20:15:20.512Z,4.30
2022-11-10T20:17:47.736Z,3.63
2022-11-10T20:20:15.401Z,4.15
2022-11-10T20:22:42.472Z,4.13
2022-11-10T20:25:10.162Z,3.47
2022-11-10T20:27:37.357Z,3.70
2022-11-10T20:30:05.918Z,3.13
2022-11-10T20:32:33.094Z,2.55
2022-11-10T20:35:00.746Z,2.78
2022-11-10T20:37:27.877Z,2.40
2022-11-10T20:39:55.052Z,1.90
2022-11-10T20:42:22.279Z,1.88
2022-11-10T20:44:49.260Z,1.88
2022-11-10T20:47:16.610Z,1.50
2022-11-10T20:49:43.721Z,1.60
2022-11-10T20:52:10.880Z,1.45
2022-11-10T20:54:37.937Z,1.25
2022-11-10T20:57:05.155Z,1.63
2022-11-10T20:59:32.238Z,1.73
2022-11-10T21:01:59.454Z,1.50
2022-11-10T21:04:26.559Z,1.40
2022-11-10T21:06:53.841Z,1.48
2022-11-10T21:09:21.079Z,1.23
2022-11-10T21:12:06.921Z,1.65
2022-11-10T21:14:34.392Z,1.40
2022-11-10T21:17:01.425Z,1.42
2022-11-10T21:19:36.418Z,1.70
2022-11-10T21:22:04.632Z,1.70
2022-11-10T21:24:31.944Z,1.30
2022-11-10T21:26:59.157Z,1.52
2022-11-10T21:29:26.383Z,1.23
2022-11-10T21:31:53.391Z,1.20
2022-11-10T21:34:20.587Z,1.55
2022-11-10T21:36:47.990Z,1.58
2022-11-10T21:39:15.142Z,2.13
2022-11-10T21:41:42.300Z,2.60
2022-11-10T21:44:09.377Z,2.72
2022-11-10T21:46:36.499Z,2.10
2022-11-10T21:49:07.647Z,1.85
2022-11-10T21:51:35.397Z,1.60
2022-11-10T21:54:02.419Z,3.35
2022-11-10T21:56:29.551Z,2.95
2022-11-10T21:58:57.861Z,2.40
2022-11-10T22:01:25.096Z,2.60
2022-11-10T22:03:52.728Z,2.63
2022-11-10T22:06:20.071Z,1.95
2022-11-10T22:08:48.397Z,1.70
2022-11-10T22:11:37.812Z,1.73
2022-11-10T22:14:31.507Z,1.65
2022-11-10T22:17:18.613Z,1.50
2022-11-10T22:19:45.842Z,1.63
2022-11-10T22:22:15.987Z,1.65
2022-11-10T22:24:43.137Z,1.40
2022-11-10T22:27:10.348Z,1.35
2022-11-10T22:29:37.390Z,1.33
2022-11-10T22:32:04.713Z,1.33
2022-11-10T22:34:31.803Z,1.52
2022-11-10T22:36:59.702Z,1.10
2022-11-10T22:39:49.700Z,1.52
2022-11-10T22:42:35.499Z,1.42
2022-11-10T22:45:02.634Z,1.90
2022-11-10T22:47:49.673Z,1.90
2022-11-10T22:50:16.961Z,1.70
2022-11-10T22:52:44.038Z,1.52
2022-11-10T22:55:11.397Z,1.58
2022-11-10T22:57:38.460Z,1.33
2022-11-10T23:00:06.657Z,1.50
2022-11-10T23:02:33.778Z,1.58
2022-11-10T23:05:00.753Z,1.33
2022-11-10T23:07:28.909Z,1.58
2022-11-10T23:09:56.010Z,1.40
2022-11-10T23:12:23.053Z,1.35
2022-11-10T23:14:50.189Z,1.30
2022-11-10T23:17:17.200Z,1.60
2022-11-10T23:19:44.485Z,1.48
2022-11-10T23:22:11.472Z,1.77
2022-11-10T23:24:38.590Z,2.00
2022-11-10T23:27:05.709Z,2.00
2022-11-10T23:29:32.740Z,2.00
2022-11-10T23:32:00.096Z,1.85
2022-11-10T23:34:27.253Z,2.10
2022-11-10T23:36:54.310Z,2.22
2022-11-10T23:39:21.546Z,1.88
2022-11-10T23:41:48.692Z,1.63
2022-11-10T23:44:15.789Z,2.20
2022-11-10T23:46:42.841Z,1.58
2022-11-10T23:49:10.141Z,1.75
2022-11-10T23:51:37.495Z,1.70
2022-11-10T23:54:04.667Z,1.77
2022-11-10T23:56:31.841Z,1.63
2022-11-10T23:58:59.018Z,1.73
